SLM9913 SMJP-SBBE
Flight info
| Callsign | SLM9913 |
|---|---|
| Flight time | 3h 12m |
| Altitude | 35000 |
| Route | ZY UG449 OTONI UZ41 KOGVU |
| Aircraft | B738/M-SDE2E3FGHIRWXY/LB1 |
Departure
| Time | 2026-04-22 17:12 |
|---|---|
| Airport | Johan Adolf Pengel International Airport (SMJP) |
Arrival
| Time | 2026-04-22 20:25 |
|---|---|
| Airport | Val de Cans/Júlio Cezar Ribeiro International Airport (SBBE) |
| Time | Latitude | Longitude | Altitude | Speed | Heading |
|---|---|---|---|---|---|
| 2026-04-22 17:07 | 5.45445 | -55.19928 | 55 ft | 0 kts | 270° |
| 2026-04-22 17:10 | 5.45445 | -55.19929 | 55 ft | 1 kts | 270° |
| 2026-04-22 17:10 | 5.45445 | -55.19958 | 53 ft | 6 kts | 270° |
| 2026-04-22 17:10 | 5.45446 | -55.20026 | 55 ft | 15 kts | 270° |
| 2026-04-22 17:10 | 5.45443 | -55.20161 | 55 ft | 24 kts | 268° |
| 2026-04-22 17:11 | 5.45415 | -55.20338 | 50 ft | 27 kts | 219° |
| 2026-04-22 17:11 | 5.45275 | -55.20303 | 51 ft | 18 kts | 116° |
| 2026-04-22 17:11 | 5.45270 | -55.20248 | 53 ft | 0 kts | 89° |
| 2026-04-22 17:12 | 5.45271 | -55.20055 | 55 ft | 61 kts | 90° |
| 2026-04-22 17:12 | 5.45274 | -55.19401 | 58 ft | 124 kts | 90° |
| 2026-04-22 17:12 | 5.45281 | -55.18350 | 109 ft | 170 kts | 91° |
| 2026-04-22 17:12 | 5.45230 | -55.17147 | 670 ft | 181 kts | 95° |
| 2026-04-22 17:13 | 5.45085 | -55.15854 | 1365 ft | 180 kts | 94° |
| 2026-04-22 17:13 | 5.44994 | -55.14609 | 2102 ft | 184 kts | 89° |
| 2026-04-22 17:13 | 5.44818 | -55.13242 | 2344 ft | 214 kts | 112° |
| 2026-04-22 17:13 | 5.43795 | -55.12075 | 2556 ft | 235 kts | 141° |
| 2026-04-22 17:14 | 5.42451 | -55.11028 | 2779 ft | 255 kts | 141° |
| 2026-04-22 17:14 | 5.41005 | -55.09874 | 3090 ft | 273 kts | 140° |
| 2026-04-22 17:14 | 5.39520 | -55.08653 | 3792 ft | 277 kts | 139° |
| 2026-04-22 17:14 | 5.38041 | -55.07407 | 4588 ft | 279 kts | 139° |
| 2026-04-22 17:15 | 5.37060 | -55.06566 | 5071 ft | 281 kts | 138° |
| 2026-04-22 17:15 | 5.35066 | -55.04831 | 6035 ft | 286 kts | 137° |
| 2026-04-22 17:15 | 5.33561 | -55.03503 | 6747 ft | 289 kts | 137° |
| 2026-04-22 17:15 | 5.32044 | -55.02156 | 7454 ft | 293 kts | 137° |
| 2026-04-22 17:16 | 5.30513 | -55.00788 | 8151 ft | 296 kts | 136° |
| 2026-04-22 17:16 | 5.28966 | -54.99402 | 8801 ft | 301 kts | 137° |
| 2026-04-22 17:16 | 5.27394 | -54.97989 | 9435 ft | 306 kts | 137° |
| 2026-04-22 17:16 | 5.25820 | -54.96573 | 10038 ft | 312 kts | 138° |
| 2026-04-22 17:17 | 5.24150 | -54.95070 | 10224 ft | 334 kts | 138° |
| 2026-04-22 17:17 | 5.22371 | -54.93468 | 10399 ft | 354 kts | 138° |
| 2026-04-22 17:17 | 5.20496 | -54.91779 | 10706 ft | 368 kts | 138° |
| 2026-04-22 17:17 | 5.18570 | -54.90043 | 11271 ft | 373 kts | 139° |
| 2026-04-22 17:18 | 5.16633 | -54.88296 | 11950 ft | 375 kts | 139° |
| 2026-04-22 17:18 | 5.14685 | -54.86539 | 12648 ft | 377 kts | 140° |
| 2026-04-22 17:18 | 5.12731 | -54.84777 | 13349 ft | 379 kts | 140° |
| 2026-04-22 17:18 | 5.10771 | -54.83010 | 14099 ft | 379 kts | 141° |
| 2026-04-22 17:19 | 5.06846 | -54.79470 | 15650 ft | 378 kts | 142° |
| 2026-04-22 17:19 | 5.02960 | -54.75966 | 17076 ft | 379 kts | 142° |
| 2026-04-22 17:20 | 4.99056 | -54.72447 | 18646 ft | 373 kts | 141° |
| 2026-04-22 17:20 | 4.95184 | -54.68956 | 19889 ft | 376 kts | 140° |
| 2026-04-22 17:21 | 4.93237 | -54.67202 | 20451 ft | 377 kts | 140° |
| 2026-04-22 17:21 | 4.89312 | -54.63667 | 21549 ft | 380 kts | 139° |
| 2026-04-22 17:22 | 4.85357 | -54.60103 | 22355 ft | 389 kts | 139° |
| 2026-04-22 17:22 | 4.83337 | -54.58285 | 22866 ft | 389 kts | 137° |
| 2026-04-22 17:22 | 4.79280 | -54.54630 | 23639 ft | 396 kts | 138° |
| 2026-04-22 17:23 | 4.77249 | -54.52801 | 24042 ft | 398 kts | 137° |
| 2026-04-22 17:23 | 4.73106 | -54.49069 | 24823 ft | 404 kts | 135° |
| 2026-04-22 17:23 | 4.70995 | -54.47167 | 25095 ft | 409 kts | 134° |
| 2026-04-22 17:24 | 4.68866 | -54.45249 | 25408 ft | 413 kts | 134° |
| 2026-04-22 17:24 | 4.66745 | -54.43340 | 25722 ft | 416 kts | 134° |
| 2026-04-22 17:24 | 4.64603 | -54.41355 | 25982 ft | 420 kts | 132° |
| 2026-04-22 17:24 | 4.62482 | -54.39306 | 26270 ft | 423 kts | 131° |
| 2026-04-22 17:25 | 4.60384 | -54.37250 | 26551 ft | 427 kts | 131° |
| 2026-04-22 17:25 | 4.58246 | -54.35150 | 26819 ft | 431 kts | 131° |
| 2026-04-22 17:25 | 4.56085 | -54.33031 | 27070 ft | 435 kts | 131° |
| 2026-04-22 17:25 | 4.53904 | -54.30901 | 27309 ft | 439 kts | 131° |
| 2026-04-22 17:26 | 4.51720 | -54.28775 | 27540 ft | 443 kts | 131° |
| 2026-04-22 17:26 | 4.49489 | -54.26608 | 27778 ft | 446 kts | 131° |
| 2026-04-22 17:26 | 4.47245 | -54.24432 | 28026 ft | 450 kts | 131° |
| 2026-04-22 17:26 | 4.45021 | -54.22277 | 28378 ft | 450 kts | 131° |
| 2026-04-22 17:27 | 4.40463 | -54.17860 | 28610 ft | 462 kts | 131° |
| 2026-04-22 17:27 | 4.38134 | -54.15603 | 28833 ft | 465 kts | 131° |
| 2026-04-22 17:27 | 4.35798 | -54.13341 | 29118 ft | 466 kts | 131° |
| 2026-04-22 17:28 | 4.33490 | -54.11107 | 29435 ft | 466 kts | 131° |
| 2026-04-22 17:28 | 4.31144 | -54.08837 | 29810 ft | 465 kts | 131° |
| 2026-04-22 17:28 | 4.28826 | -54.06594 | 30199 ft | 463 kts | 131° |
| 2026-04-22 17:28 | 4.26504 | -54.04346 | 30558 ft | 462 kts | 131° |
| 2026-04-22 17:29 | 4.24214 | -54.02129 | 30858 ft | 462 kts | 131° |
| 2026-04-22 17:29 | 4.21886 | -53.99874 | 31170 ft | 462 kts | 131° |
| 2026-04-22 17:29 | 4.19574 | -53.97634 | 31498 ft | 461 kts | 131° |
| 2026-04-22 17:29 | 4.17293 | -53.95426 | 31820 ft | 460 kts | 131° |
| 2026-04-22 17:30 | 4.14971 | -53.93178 | 32123 ft | 460 kts | 131° |
| 2026-04-22 17:30 | 4.12696 | -53.90975 | 32403 ft | 460 kts | 131° |
| 2026-04-22 17:30 | 4.10383 | -53.88736 | 32690 ft | 459 kts | 131° |
| 2026-04-22 17:30 | 4.08081 | -53.86507 | 32986 ft | 458 kts | 131° |
| 2026-04-22 17:31 | 4.05813 | -53.84313 | 33271 ft | 458 kts | 131° |
| 2026-04-22 17:31 | 4.03516 | -53.82090 | 33533 ft | 458 kts | 131° |
| 2026-04-22 17:31 | 4.01221 | -53.79868 | 33749 ft | 458 kts | 131° |
| 2026-04-22 17:31 | 3.98930 | -53.77651 | 34010 ft | 457 kts | 131° |
| 2026-04-22 17:32 | 3.96645 | -53.75440 | 34285 ft | 456 kts | 131° |
| 2026-04-22 17:32 | 3.94365 | -53.73234 | 34538 ft | 456 kts | 131° |
| 2026-04-22 17:32 | 3.92853 | -53.71772 | 34691 ft | 455 kts | 131° |
| 2026-04-22 17:32 | 3.90569 | -53.69561 | 34736 ft | 459 kts | 131° |
| 2026-04-22 17:33 | 3.85220 | -53.64386 | 34744 ft | 459 kts | 131° |
| 2026-04-22 17:33 | 3.81420 | -53.60714 | 34741 ft | 454 kts | 131° |
| 2026-04-22 17:34 | 3.76884 | -53.56328 | 34749 ft | 452 kts | 131° |
| 2026-04-22 17:34 | 3.72362 | -53.51954 | 34751 ft | 451 kts | 131° |
| 2026-04-22 17:35 | 3.67848 | -53.47588 | 34748 ft | 451 kts | 131° |
| 2026-04-22 17:35 | 3.63330 | -53.43226 | 34749 ft | 451 kts | 131° |
| 2026-04-22 17:36 | 3.58800 | -53.38863 | 34750 ft | 452 kts | 131° |
| 2026-04-22 17:36 | 3.54288 | -53.34515 | 34749 ft | 454 kts | 131° |
| 2026-04-22 17:37 | 3.49725 | -53.30119 | 34746 ft | 455 kts | 131° |
| 2026-04-22 17:37 | 3.45161 | -53.25720 | 34749 ft | 456 kts | 131° |
| 2026-04-22 17:38 | 3.40580 | -53.21307 | 34746 ft | 457 kts | 131° |
| 2026-04-22 17:38 | 3.35998 | -53.16893 | 34748 ft | 457 kts | 131° |
| 2026-04-22 17:39 | 3.31432 | -53.12495 | 34749 ft | 458 kts | 131° |
| 2026-04-22 17:40 | 3.24550 | -53.05868 | 34749 ft | 458 kts | 131° |
| 2026-04-22 17:40 | 3.19964 | -53.01451 | 34749 ft | 457 kts | 131° |
| 2026-04-22 17:41 | 3.15385 | -52.97043 | 34744 ft | 457 kts | 131° |
| 2026-04-22 17:41 | 3.10810 | -52.92639 | 34747 ft | 456 kts | 131° |
| 2026-04-22 17:42 | 3.06240 | -52.88241 | 34747 ft | 455 kts | 131° |
| 2026-04-22 17:42 | 3.01710 | -52.83881 | 34748 ft | 455 kts | 131° |
| 2026-04-22 17:43 | 2.97148 | -52.79490 | 34746 ft | 454 kts | 131° |
| 2026-04-22 17:43 | 2.92597 | -52.75111 | 34746 ft | 454 kts | 131° |
| 2026-04-22 17:44 | 2.88047 | -52.70733 | 34750 ft | 453 kts | 131° |
| 2026-04-22 17:44 | 2.83505 | -52.66363 | 34747 ft | 453 kts | 131° |
| 2026-04-22 17:45 | 2.78962 | -52.61993 | 34751 ft | 453 kts | 131° |
| 2026-04-22 17:45 | 2.74415 | -52.57618 | 34747 ft | 453 kts | 131° |
| 2026-04-22 17:46 | 2.69862 | -52.53239 | 34747 ft | 454 kts | 131° |
| 2026-04-22 17:46 | 2.65289 | -52.48924 | 34743 ft | 456 kts | 134° |
| 2026-04-22 17:47 | 2.60357 | -52.44898 | 34751 ft | 458 kts | 137° |
| 2026-04-22 17:47 | 2.55334 | -52.40968 | 34749 ft | 459 kts | 137° |
| 2026-04-22 17:48 | 2.50332 | -52.37009 | 34747 ft | 459 kts | 136° |
| 2026-04-22 17:48 | 2.45347 | -52.33017 | 34746 ft | 459 kts | 136° |
| 2026-04-22 17:49 | 2.40372 | -52.29015 | 34750 ft | 459 kts | 136° |
| 2026-04-22 17:49 | 2.35432 | -52.25039 | 34750 ft | 459 kts | 136° |
| 2026-04-22 17:50 | 2.30458 | -52.21038 | 34748 ft | 459 kts | 136° |
| 2026-04-22 17:50 | 2.25481 | -52.17037 | 34745 ft | 459 kts | 136° |
| 2026-04-22 17:51 | 2.20500 | -52.13033 | 34749 ft | 459 kts | 136° |
| 2026-04-22 17:51 | 2.15524 | -52.09033 | 34748 ft | 459 kts | 136° |
| 2026-04-22 17:52 | 2.10549 | -52.05034 | 34747 ft | 459 kts | 136° |
| 2026-04-22 17:52 | 2.05570 | -52.01032 | 34750 ft | 459 kts | 136° |
| 2026-04-22 17:53 | 2.00593 | -51.97032 | 34746 ft | 459 kts | 136° |
| 2026-04-22 17:53 | 1.95619 | -51.93035 | 34746 ft | 459 kts | 136° |
| 2026-04-22 17:54 | 1.90650 | -51.89043 | 34748 ft | 458 kts | 136° |
| 2026-04-22 17:54 | 1.85679 | -51.85049 | 34745 ft | 458 kts | 136° |
| 2026-04-22 17:55 | 1.80744 | -51.81084 | 34749 ft | 458 kts | 136° |
| 2026-04-22 17:55 | 1.75774 | -51.77091 | 34747 ft | 458 kts | 136° |
| 2026-04-22 17:56 | 1.70802 | -51.73098 | 34750 ft | 458 kts | 136° |
| 2026-04-22 17:56 | 1.65829 | -51.69103 | 34747 ft | 458 kts | 136° |
| 2026-04-22 17:57 | 1.60853 | -51.65107 | 34748 ft | 458 kts | 136° |
| 2026-04-22 17:57 | 1.55876 | -51.61110 | 34747 ft | 458 kts | 136° |
| 2026-04-22 17:58 | 1.50909 | -51.57121 | 34751 ft | 458 kts | 136° |
| 2026-04-22 17:58 | 1.45947 | -51.53136 | 34746 ft | 458 kts | 136° |
| 2026-04-22 17:59 | 1.40978 | -51.49146 | 34747 ft | 458 kts | 136° |
| 2026-04-22 17:59 | 1.36044 | -51.45184 | 34747 ft | 458 kts | 136° |
| 2026-04-22 18:00 | 1.31915 | -51.41869 | 34749 ft | 458 kts | 136° |
| 2026-04-22 18:00 | 1.26113 | -51.37211 | 34745 ft | 457 kts | 136° |
| 2026-04-22 18:01 | 1.21145 | -51.33223 | 34746 ft | 457 kts | 136° |
| 2026-04-22 18:01 | 1.16210 | -51.29260 | 34747 ft | 458 kts | 136° |
| 2026-04-22 18:02 | 1.11243 | -51.25274 | 34748 ft | 458 kts | 136° |
| 2026-04-22 18:02 | 1.06279 | -51.21288 | 34750 ft | 458 kts | 136° |
| 2026-04-22 18:03 | 1.01314 | -51.17303 | 34747 ft | 458 kts | 136° |
| 2026-04-22 18:03 | 0.96352 | -51.13320 | 34748 ft | 457 kts | 136° |
| 2026-04-22 18:04 | 0.91385 | -51.09334 | 34750 ft | 457 kts | 136° |
| 2026-04-22 18:04 | 0.86419 | -51.05347 | 34747 ft | 457 kts | 136° |
| 2026-04-22 18:05 | 0.81492 | -51.01392 | 34748 ft | 457 kts | 136° |
| 2026-04-22 18:05 | 0.76496 | -50.97382 | 34747 ft | 457 kts | 136° |
| 2026-04-22 18:06 | 0.71586 | -50.93417 | 34747 ft | 457 kts | 136° |
| 2026-04-22 18:06 | 0.66657 | -50.89402 | 34748 ft | 457 kts | 136° |
| 2026-04-22 18:07 | 0.62560 | -50.86062 | 34746 ft | 457 kts | 136° |
| 2026-04-22 18:07 | 0.56806 | -50.81376 | 34748 ft | 457 kts | 136° |
| 2026-04-22 18:08 | 0.51880 | -50.77367 | 34751 ft | 456 kts | 136° |
| 2026-04-22 18:08 | 0.46956 | -50.73361 | 34746 ft | 456 kts | 136° |
| 2026-04-22 18:09 | 0.42029 | -50.69352 | 34749 ft | 456 kts | 136° |
| 2026-04-22 18:09 | 0.37106 | -50.65347 | 34747 ft | 456 kts | 136° |
| 2026-04-22 18:10 | 0.32185 | -50.61343 | 34747 ft | 456 kts | 136° |
| 2026-04-22 18:10 | 0.27265 | -50.57339 | 34747 ft | 456 kts | 136° |
| 2026-04-22 18:11 | 0.22341 | -50.53333 | 34747 ft | 456 kts | 136° |
| 2026-04-22 18:11 | 0.17418 | -50.49327 | 34749 ft | 456 kts | 136° |
| 2026-04-22 18:12 | 0.12498 | -50.45324 | 34750 ft | 456 kts | 136° |
| 2026-04-22 18:12 | 0.08407 | -50.41995 | 34745 ft | 456 kts | 136° |
| 2026-04-22 18:13 | 0.02687 | -50.37341 | 34751 ft | 456 kts | 136° |
| 2026-04-22 18:13 | -0.02235 | -50.33337 | 34747 ft | 456 kts | 136° |
| 2026-04-22 18:14 | -0.07150 | -50.29339 | 34730 ft | 448 kts | 136° |
| 2026-04-22 18:14 | -0.09533 | -50.27407 | 34727 ft | 434 kts | 135° |
| 2026-04-22 18:14 | -0.11838 | -50.25539 | 34718 ft | 420 kts | 135° |
| 2026-04-22 18:14 | -0.14072 | -50.23726 | 34730 ft | 406 kts | 135° |
| 2026-04-22 18:15 | -0.14425 | -50.23439 | 34729 ft | 404 kts | 135° |
| 2026-04-22 20:00 | -0.16271 | -50.21940 | 34721 ft | 393 kts | 135° |
| 2026-04-22 20:01 | -0.17660 | -50.20811 | 34736 ft | 384 kts | 135° |
| 2026-04-22 20:01 | -0.21531 | -50.17651 | 34760 ft | 389 kts | 135° |
| 2026-04-22 20:02 | -0.25788 | -50.14170 | 34769 ft | 401 kts | 137° |
| 2026-04-22 20:02 | -0.27938 | -50.12415 | 33505 ft | 397 kts | 140° |
| 2026-04-22 20:02 | -0.30090 | -50.10666 | 33436 ft | 403 kts | 140° |
| 2026-04-22 20:02 | -0.32273 | -50.08892 | 32991 ft | 404 kts | 140° |
| 2026-04-22 20:03 | -0.34460 | -50.07114 | 32405 ft | 407 kts | 140° |
| 2026-04-22 20:03 | -0.36683 | -50.05307 | 31512 ft | 418 kts | 140° |
| 2026-04-22 20:03 | -0.38982 | -50.03436 | 30514 ft | 432 kts | 140° |
| 2026-04-22 20:03 | -0.41339 | -50.01519 | 29555 ft | 442 kts | 141° |
| 2026-04-22 20:04 | -0.43750 | -49.99557 | 28527 ft | 450 kts | 140° |
| 2026-04-22 20:04 | -0.46190 | -49.97572 | 27658 ft | 455 kts | 140° |
| 2026-04-22 20:04 | -0.48608 | -49.95604 | 27468 ft | 442 kts | 141° |
| 2026-04-22 20:04 | -0.50980 | -49.93673 | 27196 ft | 440 kts | 141° |
| 2026-04-22 20:05 | -0.53391 | -49.91711 | 26798 ft | 453 kts | 141° |
| 2026-04-22 20:05 | -0.55859 | -49.89703 | 26364 ft | 461 kts | 140° |
| 2026-04-22 20:05 | -0.58341 | -49.87682 | 25898 ft | 460 kts | 140° |
| 2026-04-22 20:05 | -0.60813 | -49.85671 | 25435 ft | 456 kts | 140° |
| 2026-04-22 20:06 | -0.63268 | -49.83673 | 24994 ft | 453 kts | 140° |
| 2026-04-22 20:06 | -0.65683 | -49.81706 | 24437 ft | 454 kts | 140° |
| 2026-04-22 20:06 | -0.68162 | -49.79686 | 23936 ft | 452 kts | 140° |
| 2026-04-22 20:06 | -0.70560 | -49.77733 | 23475 ft | 448 kts | 140° |
| 2026-04-22 20:07 | -0.72954 | -49.75789 | 22977 ft | 440 kts | 140° |
| 2026-04-22 20:07 | -0.75316 | -49.73873 | 22502 ft | 433 kts | 141° |
| 2026-04-22 20:07 | -0.77636 | -49.71983 | 22082 ft | 429 kts | 140° |
| 2026-04-22 20:07 | -0.79942 | -49.70100 | 21635 ft | 426 kts | 140° |
| 2026-04-22 20:08 | -0.82233 | -49.68225 | 21189 ft | 423 kts | 140° |
| 2026-04-22 20:08 | -0.84506 | -49.66365 | 20918 ft | 420 kts | 140° |
| 2026-04-22 20:08 | -0.86772 | -49.64509 | 20683 ft | 423 kts | 140° |
| 2026-04-22 20:08 | -0.89060 | -49.62636 | 20445 ft | 423 kts | 140° |
| 2026-04-22 20:09 | -0.91283 | -49.60779 | 20179 ft | 418 kts | 137° |
| 2026-04-22 20:09 | -0.93158 | -49.58596 | 19774 ft | 412 kts | 123° |
| 2026-04-22 20:09 | -0.94532 | -49.56094 | 19236 ft | 409 kts | 117° |
| 2026-04-22 20:09 | -0.95843 | -49.53571 | 18563 ft | 410 kts | 117° |
| 2026-04-22 20:10 | -0.97182 | -49.51046 | 18023 ft | 408 kts | 118° |
| 2026-04-22 20:10 | -0.98516 | -49.48568 | 17539 ft | 402 kts | 118° |
| 2026-04-22 20:10 | -0.99847 | -49.46124 | 17017 ft | 399 kts | 118° |
| 2026-04-22 20:10 | -1.01173 | -49.43704 | 16586 ft | 394 kts | 118° |
| 2026-04-22 20:11 | -1.02471 | -49.41341 | 16165 ft | 391 kts | 118° |
| 2026-04-22 20:11 | -1.03778 | -49.38964 | 15746 ft | 388 kts | 118° |
| 2026-04-22 20:11 | -1.05068 | -49.36620 | 15341 ft | 384 kts | 118° |
| 2026-04-22 20:11 | -1.06351 | -49.34286 | 14933 ft | 383 kts | 118° |
| 2026-04-22 20:12 | -1.07648 | -49.31926 | 14366 ft | 388 kts | 118° |
| 2026-04-22 20:12 | -1.08949 | -49.29558 | 13924 ft | 385 kts | 118° |
| 2026-04-22 20:12 | -1.10237 | -49.27215 | 13492 ft | 382 kts | 118° |
| 2026-04-22 20:12 | -1.11495 | -49.24926 | 13056 ft | 380 kts | 118° |
| 2026-04-22 20:13 | -1.12761 | -49.22620 | 12642 ft | 377 kts | 118° |
| 2026-04-22 20:13 | -1.14022 | -49.20325 | 12234 ft | 376 kts | 118° |
| 2026-04-22 20:13 | -1.15277 | -49.18040 | 11836 ft | 374 kts | 118° |
| 2026-04-22 20:13 | -1.16525 | -49.15769 | 11439 ft | 371 kts | 118° |
| 2026-04-22 20:14 | -1.17762 | -49.13518 | 11041 ft | 367 kts | 118° |
| 2026-04-22 20:14 | -1.19001 | -49.11296 | 10652 ft | 363 kts | 120° |
| 2026-04-22 20:14 | -1.20324 | -49.09165 | 10290 ft | 359 kts | 122° |
| 2026-04-22 20:14 | -1.21677 | -49.07103 | 10138 ft | 350 kts | 123° |
| 2026-04-22 20:15 | -1.23015 | -49.05083 | 9994 ft | 350 kts | 123° |
| 2026-04-22 20:15 | -1.24376 | -49.03022 | 9770 ft | 358 kts | 123° |
| 2026-04-22 20:15 | -1.25748 | -49.00932 | 9364 ft | 359 kts | 123° |
| 2026-04-22 20:15 | -1.27089 | -48.98876 | 8987 ft | 356 kts | 123° |
| 2026-04-22 20:16 | -1.28433 | -48.96809 | 8618 ft | 353 kts | 122° |
| 2026-04-22 20:16 | -1.29763 | -48.94759 | 8256 ft | 350 kts | 122° |
| 2026-04-22 20:16 | -1.31085 | -48.92718 | 7896 ft | 348 kts | 122° |
| 2026-04-22 20:16 | -1.32395 | -48.90696 | 7536 ft | 345 kts | 122° |
| 2026-04-22 20:17 | -1.33698 | -48.88686 | 7188 ft | 343 kts | 122° |
| 2026-04-22 20:17 | -1.34994 | -48.86686 | 6841 ft | 342 kts | 122° |
| 2026-04-22 20:17 | -1.36271 | -48.84715 | 6496 ft | 341 kts | 122° |
| 2026-04-22 20:17 | -1.37558 | -48.82726 | 6135 ft | 340 kts | 122° |
| 2026-04-22 20:18 | -1.38842 | -48.80741 | 5772 ft | 339 kts | 122° |
| 2026-04-22 20:18 | -1.40120 | -48.78767 | 5419 ft | 338 kts | 122° |
| 2026-04-22 20:18 | -1.41384 | -48.76815 | 5186 ft | 328 kts | 122° |
| 2026-04-22 20:18 | -1.42603 | -48.74936 | 5064 ft | 315 kts | 122° |
| 2026-04-22 20:19 | -1.43761 | -48.73154 | 4931 ft | 304 kts | 122° |
| 2026-04-22 20:19 | -1.44907 | -48.71396 | 4659 ft | 299 kts | 122° |
| 2026-04-22 20:19 | -1.46038 | -48.69660 | 4359 ft | 295 kts | 122° |
| 2026-04-22 20:19 | -1.47018 | -48.67888 | 4058 ft | 285 kts | 115° |
| 2026-04-22 20:20 | -1.47834 | -48.66119 | 3761 ft | 274 kts | 114° |
| 2026-04-22 20:20 | -1.48606 | -48.64445 | 3544 ft | 262 kts | 114° |
| 2026-04-22 20:20 | -1.49365 | -48.62830 | 3320 ft | 252 kts | 114° |
| 2026-04-22 20:20 | -1.49915 | -48.61215 | 3063 ft | 242 kts | 91° |
| 2026-04-22 20:21 | -1.49496 | -48.59671 | 2885 ft | 226 kts | 57° |
| 2026-04-22 20:21 | -1.48569 | -48.58481 | 2786 ft | 209 kts | 53° |
| 2026-04-22 20:21 | -1.47639 | -48.57417 | 2546 ft | 203 kts | 48° |
| 2026-04-22 20:21 | -1.46654 | -48.56421 | 2306 ft | 198 kts | 46° |
| 2026-04-22 20:22 | -1.45698 | -48.55461 | 2045 ft | 191 kts | 47° |
| 2026-04-22 20:22 | -1.44783 | -48.54539 | 1788 ft | 180 kts | 46° |
| 2026-04-22 20:22 | -1.43939 | -48.53686 | 1588 ft | 165 kts | 46° |
| 2026-04-22 20:22 | -1.43157 | -48.52896 | 1336 ft | 155 kts | 47° |
| 2026-04-22 20:23 | -1.42392 | -48.52124 | 1141 ft | 157 kts | 46° |
| 2026-04-22 20:23 | -1.41627 | -48.51352 | 935 ft | 155 kts | 46° |
| 2026-04-22 20:23 | -1.40873 | -48.50580 | 720 ft | 156 kts | 46° |
| 2026-04-22 20:23 | -1.40128 | -48.49844 | 465 ft | 150 kts | 45° |
| 2026-04-22 20:24 | -1.39417 | -48.49114 | 275 ft | 145 kts | 46° |
| 2026-04-22 20:24 | -1.38706 | -48.48403 | 90 ft | 143 kts | 46° |
| 2026-04-22 20:24 | -1.38056 | -48.47748 | 59 ft | 114 kts | 46° |
| 2026-04-22 20:24 | -1.37649 | -48.47338 | 61 ft | 52 kts | 45° |
| 2026-04-22 20:25 | -1.37510 | -48.47198 | 63 ft | 20 kts | 44° |
| 2026-04-22 20:25 | -1.37413 | -48.47103 | 59 ft | 19 kts | 44° |
| 2026-04-22 20:25 | -1.37348 | -48.47014 | 62 ft | 7 kts | 59° |
| 2026-04-22 20:25 | -1.37341 | -48.47020 | 59 ft | 2 kts | 266° |
| 2026-04-22 20:26 | -1.37351 | -48.47030 | 60 ft | 2 kts | 226° |
| 2026-04-22 20:26 | -1.37369 | -48.47050 | 61 ft | 10 kts | 230° |
| 2026-04-22 20:26 | -1.37462 | -48.47148 | 61 ft | 27 kts | 225° |
| 2026-04-22 20:26 | -1.37591 | -48.47282 | 62 ft | 26 kts | 225° |
| 2026-04-22 20:27 | -1.37711 | -48.47404 | 61 ft | 24 kts | 225° |
| 2026-04-22 20:27 | -1.37826 | -48.47519 | 61 ft | 23 kts | 225° |
| 2026-04-22 20:27 | -1.37938 | -48.47628 | 55 ft | 20 kts | 207° |
| 2026-04-22 20:27 | -1.38070 | -48.47632 | 62 ft | 19 kts | 184° |
| 2026-04-22 20:28 | -1.38201 | -48.47642 | 64 ft | 18 kts | 184° |
| 2026-04-22 20:28 | -1.38327 | -48.47654 | 57 ft | 18 kts | 184° |
| 2026-04-22 20:28 | -1.38465 | -48.47666 | 64 ft | 26 kts | 185° |
| 2026-04-22 20:28 | -1.38663 | -48.47703 | 64 ft | 23 kts | 247° |
| 2026-04-22 20:29 | -1.38747 | -48.47801 | 64 ft | 22 kts | 188° |
| 2026-04-22 20:29 | -1.38814 | -48.47849 | 57 ft | 11 kts | 224° |
| 2026-04-22 20:29 | -1.38850 | -48.47884 | 64 ft | 2 kts | 223° |
| 2026-04-22 20:29 | -1.38854 | -48.47888 | 64 ft | 0 kts | 224° |